Página principal
METAR-TAF:

METAR-TAF

Aeroportos :

Tenerife Sul, Espanha

Aeroporto de Tenerife Sul

latitude: 28-03N, longitude: 016-34W, altura: 64 m

Observação actual do tempo

O boletim foi feito há 30 minutos, às 12:00 UTC
Vento 5 kt de es-sudeste, variando entre es-nordeste e sul
Temperatura 20°C
Humidade 64%
Pressão 1019 hPa
Visibilidade 10 km ou mais
Nuvens dispersasa uma altura de 2900 ft
Nuvens fragmentadasa uma altura de 4600 ft

METAR: GCTS 231200Z 12005KT 070V170 9999 SCT029 BKN046 20/13 Q1019 NOSIG

Hora: 13:30 (12:30 UTC)

Previsão

O boletim foi feito há 4 horas e 30 minutos, às 08:00 UTC
Previsão válida de 23 às 09 UTC a 24 às 09 UTC
Vento 6 kt de su-sudeste
Visibilidade 10 km ou mais
Nuvens dispersasa uma altura de 3500 ft
Probabilidade 30% :
Temporariamente
de 23 às 09 UTC a 23 às 13 UTC
Vento 10 kt de este

TAF: GCTS 230800Z 2309/2409 16006KT 9999 SCT035 TX24/2314Z TN14/2405Z PROB30 TEMPO 2309/2313 09010KT

Observações e previsões do tempo de mais de 4000 aeroportos (mensagens METAR e TAF).

As estações disponíveis são os pontos amarelos e vermelhos sobre o mapa.

Mova o rato sobre o mapa para ver o nome da estação.

Depois clique no ponto para visualizar as observações e previsões meteorológicas.

Para alterar o mapa : clique nos botões verdes com uma cruz preta para aumentar o zoom; no botão verde com uma pitada de zoom; ou nas setas verdes para mapas adjacentes.


METAR-TAF: